sensor_id;sensor_type;location;lat;lon;timestamp;P1;durP1;ratioP1;P2;durP2;ratioP2
48042;SDS011;33988;47.992;8.820;2023-07-20T00:00:25;4.05;;;1.50;;
48042;SDS011;33988;47.992;8.820;2023-07-20T00:03:05;1.55;;;1.30;;
48042;SDS011;33988;47.992;8.820;2023-07-20T00:05:45;1.47;;;1.30;;
48042;SDS011;33988;47.992;8.820;2023-07-20T00:08:12;1.55;;;1.13;;
48042;SDS011;33988;47.992;8.820;2023-07-20T00:10:42;1.38;;;1.27;;
48042;SDS011;33988;47.992;8.820;2023-07-20T00:13:10;1.90;;;1.30;;
48042;SDS011;33988;47.992;8.820;2023-07-20T00:15:42;1.25;;;1.02;;
48042;SDS011;33988;47.992;8.820;2023-07-20T00:18:08;1.73;;;1.50;;
48042;SDS011;33988;47.992;8.820;2023-07-20T00:20:36;1.60;;;1.30;;
48042;SDS011;33988;47.992;8.820;2023-07-20T00:23:05;2.85;;;1.40;;
48042;SDS011;33988;47.992;8.820;2023-07-20T00:25:35;3.30;;;1.52;;
48042;SDS011;33988;47.992;8.820;2023-07-20T00:28:02;1.55;;;1.33;;
48042;SDS011;33988;47.992;8.820;2023-07-20T00:30:29;2.95;;;1.50;;
48042;SDS011;33988;47.992;8.820;2023-07-20T00:32:56;2.45;;;1.55;;
48042;SDS011;33988;47.992;8.820;2023-07-20T00:35:23;1.70;;;1.35;;
48042;SDS011;33988;47.992;8.820;2023-07-20T00:37:52;1.83;;;1.30;;
48042;SDS011;33988;47.992;8.820;2023-07-20T00:40:19;2.42;;;1.20;;
48042;SDS011;33988;47.992;8.820;2023-07-20T00:42:51;2.28;;;1.60;;
48042;SDS011;33988;47.992;8.820;2023-07-20T00:45:18;3.85;;;1.85;;
48042;SDS011;33988;47.992;8.820;2023-07-20T00:47:45;4.45;;;2.15;;
48042;SDS011;33988;47.992;8.820;2023-07-20T00:50:14;2.72;;;1.52;;
48042;SDS011;33988;47.992;8.820;2023-07-20T00:52:44;2.20;;;1.55;;
48042;SDS011;33988;47.992;8.820;2023-07-20T00:55:14;1.75;;;1.35;;
48042;SDS011;33988;47.992;8.820;2023-07-20T00:57:41;3.05;;;1.75;;
48042;SDS011;33988;47.992;8.820;2023-07-20T01:00:11;2.38;;;1.45;;
48042;SDS011;33988;47.992;8.820;2023-07-20T01:02:41;2.42;;;1.50;;
48042;SDS011;33988;47.992;8.820;2023-07-20T01:05:08;3.28;;;1.67;;
48042;SDS011;33988;47.992;8.820;2023-07-20T01:07:41;1.95;;;1.60;;
48042;SDS011;33988;47.992;8.820;2023-07-20T01:10:40;4.40;;;1.35;;
48042;SDS011;33988;47.992;8.820;2023-07-20T01:13:26;1.90;;;1.50;;
48042;SDS011;33988;47.992;8.820;2023-07-20T01:15:57;2.35;;;1.30;;
48042;SDS011;33988;47.992;8.820;2023-07-20T01:18:27;2.40;;;1.70;;
48042;SDS011;33988;47.992;8.820;2023-07-20T01:21:06;2.35;;;1.75;;
48042;SDS011;33988;47.992;8.820;2023-07-20T01:26:53;2.90;;;1.50;;
48042;SDS011;33988;47.992;8.820;2023-07-20T01:29:45;2.35;;;1.65;;
48042;SDS011;33988;47.992;8.820;2023-07-20T01:32:29;2.25;;;1.75;;
48042;SDS011;33988;47.992;8.820;2023-07-20T01:35:06;2.63;;;2.05;;
48042;SDS011;33988;47.992;8.820;2023-07-20T01:37:34;2.65;;;1.63;;
48042;SDS011;33988;47.992;8.820;2023-07-20T01:40:07;2.17;;;1.70;;
48042;SDS011;33988;47.992;8.820;2023-07-20T01:42:36;2.00;;;1.80;;
48042;SDS011;33988;47.992;8.820;2023-07-20T01:45:06;2.28;;;1.65;;
48042;SDS011;33988;47.992;8.820;2023-07-20T01:47:34;2.10;;;1.50;;
48042;SDS011;33988;47.992;8.820;2023-07-20T01:50:01;2.22;;;2.03;;
48042;SDS011;33988;47.992;8.820;2023-07-20T01:52:30;2.00;;;1.80;;
48042;SDS011;33988;47.992;8.820;2023-07-20T01:55:02;2.13;;;1.48;;
48042;SDS011;33988;47.992;8.820;2023-07-20T01:57:34;2.47;;;1.75;;
48042;SDS011;33988;47.992;8.820;2023-07-20T02:00:01;1.92;;;1.50;;
48042;SDS011;33988;47.992;8.820;2023-07-20T02:02:29;1.80;;;1.52;;
48042;SDS011;33988;47.992;8.820;2023-07-20T02:04:58;5.35;;;1.77;;
48042;SDS011;33988;47.992;8.820;2023-07-20T02:07:28;2.15;;;1.85;;
48042;SDS011;33988;47.992;8.820;2023-07-20T02:09:57;1.92;;;1.70;;
48042;SDS011;33988;47.992;8.820;2023-07-20T02:12:24;2.17;;;1.67;;
48042;SDS011;33988;47.992;8.820;2023-07-20T02:14:51;2.40;;;1.92;;
48042;SDS011;33988;47.992;8.820;2023-07-20T02:17:20;2.88;;;1.90;;
48042;SDS011;33988;47.992;8.820;2023-07-20T02:19:50;2.75;;;1.70;;
48042;SDS011;33988;47.992;8.820;2023-07-20T02:22:21;2.97;;;1.67;;
48042;SDS011;33988;47.992;8.820;2023-07-20T02:24:48;2.22;;;1.70;;
48042;SDS011;33988;47.992;8.820;2023-07-20T02:27:18;4.35;;;1.90;;
48042;SDS011;33988;47.992;8.820;2023-07-20T02:29:44;3.35;;;1.83;;
48042;SDS011;33988;47.992;8.820;2023-07-20T02:32:11;2.17;;;1.80;;
48042;SDS011;33988;47.992;8.820;2023-07-20T02:34:38;3.53;;;2.00;;
48042;SDS011;33988;47.992;8.820;2023-07-20T02:37:05;1.77;;;1.55;;
48042;SDS011;33988;47.992;8.820;2023-07-20T02:39:35;3.05;;;1.70;;
48042;SDS011;33988;47.992;8.820;2023-07-20T02:42:02;2.58;;;1.90;;
48042;SDS011;33988;47.992;8.820;2023-07-20T02:44:31;3.83;;;1.60;;
48042;SDS011;33988;47.992;8.820;2023-07-20T02:46:58;4.07;;;1.90;;
48042;SDS011;33988;47.992;8.820;2023-07-20T02:49:26;2.72;;;1.98;;
48042;SDS011;33988;47.992;8.820;2023-07-20T02:51:53;2.75;;;1.88;;
48042;SDS011;33988;47.992;8.820;2023-07-20T02:54:20;3.35;;;1.95;;
48042;SDS011;33988;47.992;8.820;2023-07-20T02:56:52;3.15;;;2.00;;
48042;SDS011;33988;47.992;8.820;2023-07-20T02:59:19;2.30;;;1.65;;
48042;SDS011;33988;47.992;8.820;2023-07-20T03:01:48;3.85;;;1.80;;
48042;SDS011;33988;47.992;8.820;2023-07-20T03:04:20;2.67;;;1.60;;
48042;SDS011;33988;47.992;8.820;2023-07-20T03:06:47;1.83;;;1.58;;
48042;SDS011;33988;47.992;8.820;2023-07-20T03:09:17;1.83;;;1.73;;
48042;SDS011;33988;47.992;8.820;2023-07-20T03:11:44;3.35;;;1.98;;
48042;SDS011;33988;47.992;8.820;2023-07-20T03:14:13;2.88;;;1.88;;
48042;SDS011;33988;47.992;8.820;2023-07-20T03:16:40;2.40;;;1.75;;
48042;SDS011;33988;47.992;8.820;2023-07-20T03:19:09;2.22;;;1.60;;
48042;SDS011;33988;47.992;8.820;2023-07-20T03:21:39;2.65;;;1.90;;
48042;SDS011;33988;47.992;8.820;2023-07-20T03:24:07;4.75;;;2.38;;
48042;SDS011;33988;47.992;8.820;2023-07-20T03:26:35;1.92;;;1.80;;
48042;SDS011;33988;47.992;8.820;2023-07-20T03:29:03;3.03;;;2.00;;
48042;SDS011;33988;47.992;8.820;2023-07-20T03:31:33;2.35;;;1.98;;
48042;SDS011;33988;47.992;8.820;2023-07-20T03:34:00;3.90;;;1.83;;
48042;SDS011;33988;47.992;8.820;2023-07-20T03:36:29;2.38;;;1.85;;
48042;SDS011;33988;47.992;8.820;2023-07-20T03:38:58;2.03;;;1.83;;
48042;SDS011;33988;47.992;8.820;2023-07-20T03:41:25;2.08;;;1.88;;
48042;SDS011;33988;47.992;8.820;2023-07-20T03:43:54;3.08;;;2.05;;
48042;SDS011;33988;47.992;8.820;2023-07-20T03:46:26;2.95;;;1.70;;
48042;SDS011;33988;47.992;8.820;2023-07-20T03:48:57;4.20;;;1.83;;
48042;SDS011;33988;47.992;8.820;2023-07-20T03:51:26;3.00;;;2.05;;
48042;SDS011;33988;47.992;8.820;2023-07-20T03:53:55;5.78;;;2.00;;
48042;SDS011;33988;47.992;8.820;2023-07-20T03:56:22;4.28;;;1.63;;
48042;SDS011;33988;47.992;8.820;2023-07-20T03:58:50;3.55;;;1.67;;
48042;SDS011;33988;47.992;8.820;2023-07-20T04:01:17;2.75;;;1.83;;
48042;SDS011;33988;47.992;8.820;2023-07-20T04:03:44;2.95;;;2.10;;
48042;SDS011;33988;47.992;8.820;2023-07-20T04:06:15;3.65;;;1.83;;
48042;SDS011;33988;47.992;8.820;2023-07-20T04:08:47;3.20;;;1.95;;
48042;SDS011;33988;47.992;8.820;2023-07-20T04:11:16;4.10;;;2.00;;
48042;SDS011;33988;47.992;8.820;2023-07-20T04:13:45;2.95;;;1.83;;
48042;SDS011;33988;47.992;8.820;2023-07-20T04:16:15;3.28;;;2.17;;
48042;SDS011;33988;47.992;8.820;2023-07-20T04:18:46;6.07;;;2.30;;
48042;SDS011;33988;47.992;8.820;2023-07-20T04:21:13;2.55;;;1.73;;
48042;SDS011;33988;47.992;8.820;2023-07-20T04:23:43;2.70;;;2.13;;
48042;SDS011;33988;47.992;8.820;2023-07-20T04:26:17;2.78;;;2.00;;
48042;SDS011;33988;47.992;8.820;2023-07-20T04:28:46;2.03;;;1.83;;
48042;SDS011;33988;47.992;8.820;2023-07-20T04:31:14;4.18;;;2.70;;
48042;SDS011;33988;47.992;8.820;2023-07-20T04:33:44;3.17;;;2.17;;
48042;SDS011;33988;47.992;8.820;2023-07-20T04:36:13;3.00;;;2.30;;
48042;SDS011;33988;47.992;8.820;2023-07-20T04:38:42;2.95;;;2.10;;
48042;SDS011;33988;47.992;8.820;2023-07-20T04:41:09;3.00;;;2.22;;
48042;SDS011;33988;47.992;8.820;2023-07-20T04:43:41;2.72;;;2.28;;
48042;SDS011;33988;47.992;8.820;2023-07-20T04:46:09;2.10;;;1.83;;
48042;SDS011;33988;47.992;8.820;2023-07-20T04:48:42;4.00;;;1.90;;
48042;SDS011;33988;47.992;8.820;2023-07-20T04:51:11;2.67;;;2.00;;
48042;SDS011;33988;47.992;8.820;2023-07-20T04:53:38;3.70;;;2.38;;
48042;SDS011;33988;47.992;8.820;2023-07-20T04:56:05;5.00;;;2.35;;
48042;SDS011;33988;47.992;8.820;2023-07-20T04:58:35;3.45;;;2.10;;
48042;SDS011;33988;47.992;8.820;2023-07-20T05:01:01;4.25;;;2.15;;
48042;SDS011;33988;47.992;8.820;2023-07-20T05:03:28;4.63;;;2.25;;
48042;SDS011;33988;47.992;8.820;2023-07-20T05:05:56;3.63;;;2.00;;
48042;SDS011;33988;47.992;8.820;2023-07-20T05:08:23;3.08;;;2.15;;
48042;SDS011;33988;47.992;8.820;2023-07-20T05:10:51;4.25;;;2.20;;
48042;SDS011;33988;47.992;8.820;2023-07-20T05:13:18;3.25;;;2.08;;
48042;SDS011;33988;47.992;8.820;2023-07-20T05:15:45;4.40;;;2.40;;
48042;SDS011;33988;47.992;8.820;2023-07-20T05:18:19;3.30;;;2.20;;
48042;SDS011;33988;47.992;8.820;2023-07-20T05:20:49;2.50;;;2.20;;
48042;SDS011;33988;47.992;8.820;2023-07-20T05:23:17;3.50;;;2.20;;
48042;SDS011;33988;47.992;8.820;2023-07-20T05:25:53;4.97;;;2.47;;
48042;SDS011;33988;47.992;8.820;2023-07-20T05:28:22;3.47;;;1.90;;
48042;SDS011;33988;47.992;8.820;2023-07-20T05:30:50;4.32;;;2.30;;
48042;SDS011;33988;47.992;8.820;2023-07-20T05:33:20;4.20;;;2.22;;
48042;SDS011;33988;47.992;8.820;2023-07-20T05:35:47;2.92;;;1.80;;
48042;SDS011;33988;47.992;8.820;2023-07-20T05:38:15;3.30;;;2.40;;
48042;SDS011;33988;47.992;8.820;2023-07-20T05:40:44;3.40;;;2.40;;
48042;SDS011;33988;47.992;8.820;2023-07-20T05:43:13;3.92;;;2.63;;
48042;SDS011;33988;47.992;8.820;2023-07-20T05:45:43;3.55;;;3.17;;
48042;SDS011;33988;47.992;8.820;2023-07-20T05:50:43;3.28;;;2.58;;
48042;SDS011;33988;47.992;8.820;2023-07-20T05:53:10;2.83;;;2.15;;
48042;SDS011;33988;47.992;8.820;2023-07-20T05:55:39;3.83;;;2.78;;
48042;SDS011;33988;47.992;8.820;2023-07-20T05:58:07;4.95;;;2.42;;
48042;SDS011;33988;47.992;8.820;2023-07-20T06:00:36;3.78;;;2.40;;
48042;SDS011;33988;47.992;8.820;2023-07-20T06:03:03;5.32;;;2.83;;
48042;SDS011;33988;47.992;8.820;2023-07-20T06:05:30;3.75;;;2.65;;
48042;SDS011;33988;47.992;8.820;2023-07-20T06:08:00;3.35;;;2.28;;
48042;SDS011;33988;47.992;8.820;2023-07-20T06:10:27;6.20;;;2.50;;
48042;SDS011;33988;47.992;8.820;2023-07-20T06:12:54;4.88;;;2.85;;
48042;SDS011;33988;47.992;8.820;2023-07-20T06:17:54;4.75;;;2.42;;
48042;SDS011;33988;47.992;8.820;2023-07-20T06:20:25;3.60;;;2.40;;
48042;SDS011;33988;47.992;8.820;2023-07-20T06:22:52;3.67;;;2.35;;
48042;SDS011;33988;47.992;8.820;2023-07-20T06:25:19;8.20;;;2.30;;
48042;SDS011;33988;47.992;8.820;2023-07-20T06:27:48;3.47;;;2.22;;
48042;SDS011;33988;47.992;8.820;2023-07-20T06:30:20;10.43;;;2.15;;
48042;SDS011;33988;47.992;8.820;2023-07-20T06:32:47;3.70;;;2.60;;
48042;SDS011;33988;47.992;8.820;2023-07-20T06:35:15;4.65;;;2.22;;
48042;SDS011;33988;47.992;8.820;2023-07-20T06:37:43;7.63;;;2.47;;
48042;SDS011;33988;47.992;8.820;2023-07-20T06:40:17;4.55;;;2.92;;
48042;SDS011;33988;47.992;8.820;2023-07-20T06:42:47;5.18;;;2.42;;
48042;SDS011;33988;47.992;8.820;2023-07-20T06:45:22;5.28;;;2.67;;
48042;SDS011;33988;47.992;8.820;2023-07-20T06:47:51;7.07;;;3.25;;
48042;SDS011;33988;47.992;8.820;2023-07-20T06:50:18;3.58;;;2.25;;
48042;SDS011;33988;47.992;8.820;2023-07-20T06:52:52;3.42;;;2.45;;
48042;SDS011;33988;47.992;8.820;2023-07-20T06:55:19;6.43;;;2.97;;
48042;SDS011;33988;47.992;8.820;2023-07-20T06:57:49;4.05;;;2.50;;
48042;SDS011;33988;47.992;8.820;2023-07-20T07:00:18;5.32;;;2.40;;
48042;SDS011;33988;47.992;8.820;2023-07-20T07:02:47;3.33;;;2.50;;
48042;SDS011;33988;47.992;8.820;2023-07-20T07:05:17;4.78;;;2.20;;
48042;SDS011;33988;47.992;8.820;2023-07-20T07:07:46;2.97;;;2.17;;
48042;SDS011;33988;47.992;8.820;2023-07-20T07:10:14;2.58;;;2.13;;
48042;SDS011;33988;47.992;8.820;2023-07-20T07:12:40;2.70;;;1.88;;
48042;SDS011;33988;47.992;8.820;2023-07-20T07:15:08;4.32;;;2.53;;
48042;SDS011;33988;47.992;8.820;2023-07-20T07:17:37;3.05;;;2.05;;
48042;SDS011;33988;47.992;8.820;2023-07-20T07:20:05;4.45;;;2.40;;
48042;SDS011;33988;47.992;8.820;2023-07-20T07:22:36;3.83;;;2.35;;
48042;SDS011;33988;47.992;8.820;2023-07-20T07:25:06;2.80;;;2.00;;
48042;SDS011;33988;47.992;8.820;2023-07-20T07:27:33;4.32;;;1.83;;
48042;SDS011;33988;47.992;8.820;2023-07-20T07:30:03;1.83;;;1.52;;
48042;SDS011;33988;47.992;8.820;2023-07-20T07:32:31;1.95;;;1.55;;
48042;SDS011;33988;47.992;8.820;2023-07-20T07:34:58;2.30;;;1.63;;
48042;SDS011;33988;47.992;8.820;2023-07-20T07:37:26;1.70;;;1.60;;
48042;SDS011;33988;47.992;8.820;2023-07-20T07:39:54;2.05;;;1.80;;
48042;SDS011;33988;47.992;8.820;2023-07-20T07:42:21;4.20;;;1.70;;
48042;SDS011;33988;47.992;8.820;2023-07-20T07:44:51;4.88;;;1.60;;
48042;SDS011;33988;47.992;8.820;2023-07-20T07:47:17;2.67;;;1.67;;
48042;SDS011;33988;47.992;8.820;2023-07-20T07:49:47;2.08;;;1.60;;
48042;SDS011;33988;47.992;8.820;2023-07-20T07:52:18;2.40;;;1.50;;
48042;SDS011;33988;47.992;8.820;2023-07-20T07:54:45;2.03;;;1.80;;
48042;SDS011;33988;47.992;8.820;2023-07-20T07:57:12;3.45;;;1.70;;
48042;SDS011;33988;47.992;8.820;2023-07-20T07:59:44;3.45;;;1.80;;
48042;SDS011;33988;47.992;8.820;2023-07-20T08:02:13;2.00;;;1.70;;
48042;SDS011;33988;47.992;8.820;2023-07-20T08:04:40;3.05;;;1.67;;
48042;SDS011;33988;47.992;8.820;2023-07-20T08:07:09;1.92;;;1.50;;
48042;SDS011;33988;47.992;8.820;2023-07-20T08:09:36;3.05;;;1.40;;
48042;SDS011;33988;47.992;8.820;2023-07-20T08:12:05;1.75;;;1.60;;
48042;SDS011;33988;47.992;8.820;2023-07-20T08:14:37;2.65;;;1.67;;
48042;SDS011;33988;47.992;8.820;2023-07-20T08:17:06;2.58;;;1.58;;
48042;SDS011;33988;47.992;8.820;2023-07-20T08:19:38;2.30;;;1.50;;
48042;SDS011;33988;47.992;8.820;2023-07-20T08:22:08;5.03;;;1.70;;
48042;SDS011;33988;47.992;8.820;2023-07-20T08:24:39;1.95;;;1.73;;
48042;SDS011;33988;47.992;8.820;2023-07-20T08:27:07;2.47;;;1.70;;
48042;SDS011;33988;47.992;8.820;2023-07-20T08:29:36;2.78;;;1.50;;
48042;SDS011;33988;47.992;8.820;2023-07-20T08:32:04;2.60;;;1.70;;
48042;SDS011;33988;47.992;8.820;2023-07-20T08:34:32;2.20;;;1.35;;
48042;SDS011;33988;47.992;8.820;2023-07-20T08:37:02;2.15;;;1.50;;
48042;SDS011;33988;47.992;8.820;2023-07-20T08:39:31;2.33;;;1.65;;
48042;SDS011;33988;47.992;8.820;2023-07-20T08:41:59;4.57;;;1.67;;
48042;SDS011;33988;47.992;8.820;2023-07-20T08:44:32;3.17;;;1.70;;
48042;SDS011;33988;47.992;8.820;2023-07-20T08:47:00;2.58;;;1.58;;
48042;SDS011;33988;47.992;8.820;2023-07-20T08:49:34;2.50;;;1.70;;
48042;SDS011;33988;47.992;8.820;2023-07-20T08:52:07;1.38;;;1.27;;
48042;SDS011;33988;47.992;8.820;2023-07-20T08:54:35;2.83;;;1.83;;
48042;SDS011;33988;47.992;8.820;2023-07-20T08:57:05;2.10;;;1.58;;
48042;SDS011;33988;47.992;8.820;2023-07-20T08:59:34;1.80;;;1.45;;
48042;SDS011;33988;47.992;8.820;2023-07-20T09:02:05;2.10;;;1.60;;
48042;SDS011;33988;47.992;8.820;2023-07-20T09:04:44;3.15;;;1.80;;
48042;SDS011;33988;47.992;8.820;2023-07-20T09:07:11;2.30;;;1.33;;
48042;SDS011;33988;47.992;8.820;2023-07-20T09:09:41;2.35;;;1.30;;
48042;SDS011;33988;47.992;8.820;2023-07-20T09:12:13;3.40;;;1.40;;
48042;SDS011;33988;47.992;8.820;2023-07-20T09:14:45;2.53;;;1.70;;
48042;SDS011;33988;47.992;8.820;2023-07-20T09:17:12;2.60;;;1.63;;
48042;SDS011;33988;47.992;8.820;2023-07-20T09:19:47;2.58;;;1.50;;
48042;SDS011;33988;47.992;8.820;2023-07-20T09:22:16;2.40;;;1.48;;
48042;SDS011;33988;47.992;8.820;2023-07-20T09:24:46;1.75;;;1.48;;
48042;SDS011;33988;47.992;8.820;2023-07-20T09:27:17;2.38;;;1.63;;
48042;SDS011;33988;47.992;8.820;2023-07-20T09:29:49;3.50;;;1.60;;
48042;SDS011;33988;47.992;8.820;2023-07-20T09:32:18;1.67;;;1.48;;
48042;SDS011;33988;47.992;8.820;2023-07-20T09:34:51;2.83;;;1.60;;
48042;SDS011;33988;47.992;8.820;2023-07-20T09:37:22;1.80;;;1.60;;
48042;SDS011;33988;47.992;8.820;2023-07-20T09:39:53;2.45;;;1.70;;
48042;SDS011;33988;47.992;8.820;2023-07-20T09:42:25;2.42;;;1.88;;
48042;SDS011;33988;47.992;8.820;2023-07-20T09:45:00;3.30;;;1.75;;
48042;SDS011;33988;47.992;8.820;2023-07-20T09:47:30;1.60;;;1.35;;
48042;SDS011;33988;47.992;8.820;2023-07-20T09:50:03;3.08;;;1.40;;
48042;SDS011;33988;47.992;8.820;2023-07-20T09:52:40;1.55;;;1.45;;
48042;SDS011;33988;47.992;8.820;2023-07-20T09:55:13;2.08;;;1.50;;
48042;SDS011;33988;47.992;8.820;2023-07-20T09:57:42;1.88;;;1.50;;
48042;SDS011;33988;47.992;8.820;2023-07-20T10:00:09;2.75;;;1.45;;
48042;SDS011;33988;47.992;8.820;2023-07-20T10:02:43;1.58;;;1.48;;
48042;SDS011;33988;47.992;8.820;2023-07-20T10:05:14;1.55;;;1.45;;
48042;SDS011;33988;47.992;8.820;2023-07-20T10:07:48;1.83;;;1.48;;
48042;SDS011;33988;47.992;8.820;2023-07-20T10:10:37;2.33;;;1.67;;
48042;SDS011;33988;47.992;8.820;2023-07-20T10:13:18;2.17;;;1.55;;
48042;SDS011;33988;47.992;8.820;2023-07-20T10:15:58;1.73;;;1.45;;
48042;SDS011;33988;47.992;8.820;2023-07-20T10:21:20;2.10;;;1.33;;
48042;SDS011;33988;47.992;8.820;2023-07-20T10:23:59;2.00;;;1.80;;
48042;SDS011;33988;47.992;8.820;2023-07-20T10:26:28;1.83;;;1.33;;
48042;SDS011;33988;47.992;8.820;2023-07-20T10:28:55;2.50;;;1.60;;
48042;SDS011;33988;47.992;8.820;2023-07-20T10:31:27;1.45;;;1.13;;
48042;SDS011;33988;47.992;8.820;2023-07-20T10:33:58;1.67;;;1.30;;
48042;SDS011;33988;47.992;8.820;2023-07-20T10:36:30;2.33;;;1.35;;
48042;SDS011;33988;47.992;8.820;2023-07-20T10:39:00;1.55;;;1.10;;
48042;SDS011;33988;47.992;8.820;2023-07-20T10:44:01;3.05;;;1.50;;
48042;SDS011;33988;47.992;8.820;2023-07-20T10:46:41;2.42;;;1.20;;
48042;SDS011;33988;47.992;8.820;2023-07-20T10:49:15;1.40;;;1.20;;
48042;SDS011;33988;47.992;8.820;2023-07-20T10:51:48;2.60;;;1.45;;
48042;SDS011;33988;47.992;8.820;2023-07-20T10:56:52;2.53;;;1.35;;
48042;SDS011;33988;47.992;8.820;2023-07-20T11:01:50;2.15;;;1.42;;
48042;SDS011;33988;47.992;8.820;2023-07-20T11:04:43;2.38;;;1.40;;
48042;SDS011;33988;47.992;8.820;2023-07-20T11:07:16;1.90;;;1.40;;
48042;SDS011;33988;47.992;8.820;2023-07-20T11:10:14;1.35;;;1.10;;
48042;SDS011;33988;47.992;8.820;2023-07-20T11:18:26;1.10;;;1.00;;
48042;SDS011;33988;47.992;8.820;2023-07-20T11:20:53;1.63;;;1.30;;
48042;SDS011;33988;47.992;8.820;2023-07-20T11:23:20;1.98;;;1.33;;
48042;SDS011;33988;47.992;8.820;2023-07-20T11:25:53;1.52;;;1.15;;
48042;SDS011;33988;47.992;8.820;2023-07-20T11:28:25;4.85;;;1.45;;
48042;SDS011;33988;47.992;8.820;2023-07-20T11:30:56;2.58;;;1.30;;
48042;SDS011;33988;47.992;8.820;2023-07-20T11:33:23;2.65;;;1.23;;
48042;SDS011;33988;47.992;8.820;2023-07-20T11:35:52;2.80;;;1.20;;
48042;SDS011;33988;47.992;8.820;2023-07-20T11:38:21;1.58;;;1.10;;
48042;SDS011;33988;47.992;8.820;2023-07-20T11:40:50;1.45;;;1.08;;
48042;SDS011;33988;47.992;8.820;2023-07-20T11:43:17;2.53;;;1.13;;
48042;SDS011;33988;47.992;8.820;2023-07-20T11:45:52;1.35;;;1.25;;
48042;SDS011;33988;47.992;8.820;2023-07-20T11:48:19;1.92;;;1.02;;
48042;SDS011;33988;47.992;8.820;2023-07-20T11:50:48;2.03;;;1.17;;
48042;SDS011;33988;47.992;8.820;2023-07-20T11:53:15;3.45;;;1.38;;
48042;SDS011;33988;47.992;8.820;2023-07-20T11:55:43;2.60;;;1.17;;
48042;SDS011;33988;47.992;8.820;2023-07-20T11:58:12;4.30;;;1.35;;
48042;SDS011;33988;47.992;8.820;2023-07-20T12:00:45;1.65;;;1.10;;
48042;SDS011;33988;47.992;8.820;2023-07-20T12:03:12;1.15;;;1.05;;
48042;SDS011;33988;47.992;8.820;2023-07-20T12:05:42;1.65;;;1.17;;
48042;SDS011;33988;47.992;8.820;2023-07-20T12:08:27;1.25;;;1.05;;
48042;SDS011;33988;47.992;8.820;2023-07-20T12:10:54;1.27;;;1.17;;
48042;SDS011;33988;47.992;8.820;2023-07-20T12:13:23;1.55;;;1.17;;
48042;SDS011;33988;47.992;8.820;2023-07-20T12:15:52;1.33;;;1.10;;
48042;SDS011;33988;47.992;8.820;2023-07-20T12:18:22;1.13;;;1.00;;
48042;SDS011;33988;47.992;8.820;2023-07-20T12:20:58;1.45;;;1.25;;
48042;SDS011;33988;47.992;8.820;2023-07-20T12:23:34;1.30;;;1.20;;
48042;SDS011;33988;47.992;8.820;2023-07-20T12:26:05;1.45;;;1.08;;
48042;SDS011;33988;47.992;8.820;2023-07-20T12:28:38;1.20;;;1.10;;
48042;SDS011;33988;47.992;8.820;2023-07-20T12:31:09;1.25;;;0.95;;
48042;SDS011;33988;47.992;8.820;2023-07-20T12:33:40;1.77;;;1.38;;
48042;SDS011;33988;47.992;8.820;2023-07-20T12:36:09;1.48;;;1.30;;
48042;SDS011;33988;47.992;8.820;2023-07-20T12:38:37;2.03;;;1.15;;
48042;SDS011;33988;47.992;8.820;2023-07-20T12:41:04;1.45;;;1.13;;
48042;SDS011;33988;47.992;8.820;2023-07-20T12:43:31;1.58;;;1.15;;
48042;SDS011;33988;47.992;8.820;2023-07-20T12:46:03;1.40;;;1.20;;
48042;SDS011;33988;47.992;8.820;2023-07-20T12:48:30;2.33;;;1.63;;
48042;SDS011;33988;47.992;8.820;2023-07-20T12:51:02;1.40;;;1.00;;
48042;SDS011;33988;47.992;8.820;2023-07-20T12:53:32;2.28;;;1.02;;
48042;SDS011;33988;47.992;8.820;2023-07-20T12:56:01;1.58;;;1.20;;
48042;SDS011;33988;47.992;8.820;2023-07-20T12:58:49;1.13;;;1.00;;
48042;SDS011;33988;47.992;8.820;2023-07-20T13:01:16;2.60;;;1.40;;
48042;SDS011;33988;47.992;8.820;2023-07-20T13:03:43;2.30;;;1.30;;
48042;SDS011;33988;47.992;8.820;2023-07-20T13:06:13;1.52;;;1.13;;
48042;SDS011;33988;47.992;8.820;2023-07-20T13:08:43;2.85;;;1.10;;
48042;SDS011;33988;47.992;8.820;2023-07-20T13:11:12;1.92;;;1.13;;
48042;SDS011;33988;47.992;8.820;2023-07-20T13:13:41;1.85;;;1.23;;
48042;SDS011;33988;47.992;8.820;2023-07-20T13:16:11;1.42;;;1.20;;
48042;SDS011;33988;47.992;8.820;2023-07-20T13:18:41;2.65;;;1.20;;
48042;SDS011;33988;47.992;8.820;2023-07-20T13:21:08;1.10;;;1.02;;
48042;SDS011;33988;47.992;8.820;2023-07-20T13:23:38;0.93;;;0.90;;
48042;SDS011;33988;47.992;8.820;2023-07-20T13:26:07;1.38;;;1.17;;
48042;SDS011;33988;47.992;8.820;2023-07-20T13:28:37;2.63;;;1.10;;
48042;SDS011;33988;47.992;8.820;2023-07-20T13:31:04;4.10;;;1.13;;
48042;SDS011;33988;47.992;8.820;2023-07-20T13:33:31;1.30;;;1.20;;
48042;SDS011;33988;47.992;8.820;2023-07-20T13:36:05;2.10;;;1.30;;
48042;SDS011;33988;47.992;8.820;2023-07-20T13:38:35;1.80;;;1.38;;
48042;SDS011;33988;47.992;8.820;2023-07-20T13:41:04;1.20;;;1.02;;
48042;SDS011;33988;47.992;8.820;2023-07-20T13:43:31;1.55;;;1.30;;
48042;SDS011;33988;47.992;8.820;2023-07-20T13:46:03;1.20;;;1.10;;
48042;SDS011;33988;47.992;8.820;2023-07-20T13:48:30;2.28;;;0.98;;
48042;SDS011;33988;47.992;8.820;2023-07-20T13:51:02;1.35;;;1.23;;
48042;SDS011;33988;47.992;8.820;2023-07-20T13:53:29;1.90;;;1.40;;
48042;SDS011;33988;47.992;8.820;2023-07-20T13:55:59;1.90;;;1.25;;
48042;SDS011;33988;47.992;8.820;2023-07-20T13:58:32;1.27;;;1.10;;
48042;SDS011;33988;47.992;8.820;2023-07-20T14:01:01;2.30;;;1.45;;
48042;SDS011;33988;47.992;8.820;2023-07-20T14:03:28;1.40;;;1.30;;
48042;SDS011;33988;47.992;8.820;2023-07-20T14:05:56;1.73;;;1.30;;
48042;SDS011;33988;47.992;8.820;2023-07-20T14:08:28;1.40;;;1.25;;
48042;SDS011;33988;47.992;8.820;2023-07-20T14:10:57;2.50;;;1.50;;
48042;SDS011;33988;47.992;8.820;2023-07-20T14:13:27;3.27;;;1.60;;
48042;SDS011;33988;47.992;8.820;2023-07-20T14:16:12;1.40;;;1.20;;
48042;SDS011;33988;47.992;8.820;2023-07-20T14:18:39;1.50;;;1.40;;
48042;SDS011;33988;47.992;8.820;2023-07-20T14:21:08;1.35;;;1.23;;
48042;SDS011;33988;47.992;8.820;2023-07-20T14:23:35;1.48;;;1.38;;
48042;SDS011;33988;47.992;8.820;2023-07-20T14:26:02;2.97;;;1.77;;
48042;SDS011;33988;47.992;8.820;2023-07-20T14:28:35;1.23;;;1.13;;
48042;SDS011;33988;47.992;8.820;2023-07-20T14:31:04;1.73;;;1.13;;
48042;SDS011;33988;47.992;8.820;2023-07-20T14:33:36;1.50;;;1.30;;
48042;SDS011;33988;47.992;8.820;2023-07-20T14:36:06;1.40;;;1.15;;
48042;SDS011;33988;47.992;8.820;2023-07-20T14:38:34;2.17;;;1.23;;
48042;SDS011;33988;47.992;8.820;2023-07-20T14:41:02;1.77;;;1.23;;
48042;SDS011;33988;47.992;8.820;2023-07-20T14:45:59;1.13;;;1.02;;
48042;SDS011;33988;47.992;8.820;2023-07-20T14:48:31;2.20;;;1.20;;
48042;SDS011;33988;47.992;8.820;2023-07-20T14:50:58;1.48;;;1.20;;
48042;SDS011;33988;47.992;8.820;2023-07-20T14:53:31;1.83;;;1.23;;
48042;SDS011;33988;47.992;8.820;2023-07-20T14:56:01;1.20;;;1.10;;
48042;SDS011;33988;47.992;8.820;2023-07-20T14:58:29;2.38;;;1.50;;
48042;SDS011;33988;47.992;8.820;2023-07-20T15:01:03;1.67;;;1.25;;
48042;SDS011;33988;47.992;8.820;2023-07-20T15:03:32;2.42;;;1.30;;
48042;SDS011;33988;47.992;8.820;2023-07-20T15:06:00;1.77;;;1.20;;
48042;SDS011;33988;47.992;8.820;2023-07-20T15:08:30;2.28;;;1.30;;
48042;SDS011;33988;47.992;8.820;2023-07-20T15:10:57;3.03;;;1.23;;
48042;SDS011;33988;47.992;8.820;2023-07-20T15:13:24;1.40;;;1.30;;
48042;SDS011;33988;47.992;8.820;2023-07-20T15:15:54;1.98;;;1.48;;
48042;SDS011;33988;47.992;8.820;2023-07-20T15:18:21;1.75;;;1.20;;
48042;SDS011;33988;47.992;8.820;2023-07-20T15:21:06;2.10;;;1.17;;
48042;SDS011;33988;47.992;8.820;2023-07-20T15:23:36;1.42;;;1.20;;
48042;SDS011;33988;47.992;8.820;2023-07-20T15:26:07;1.15;;;1.05;;
48042;SDS011;33988;47.992;8.820;2023-07-20T15:28:40;1.38;;;1.27;;
48042;SDS011;33988;47.992;8.820;2023-07-20T15:31:09;1.33;;;1.20;;